sensor_id;sensor_type;location;lat;lon;timestamp;pressure;altitude;pressure_sealevel;temperature;humidity
7614;BME280;3848;42.016;23.098;2023-07-31T00:00:20;96559.25;;;23.76;100.00
7614;BME280;3848;42.016;23.098;2023-07-31T00:02:47;96583.25;;;24.03;100.00
7614;BME280;3848;42.016;23.098;2023-07-31T00:05:14;96569.94;;;24.08;100.00
7614;BME280;3848;42.016;23.098;2023-07-31T00:07:40;96563.38;;;24.15;100.00
7614;BME280;3848;42.016;23.098;2023-07-31T00:10:08;96569.72;;;24.11;100.00
7614;BME280;3848;42.016;23.098;2023-07-31T00:12:38;96581.09;;;23.97;100.00
7614;BME280;3848;42.016;23.098;2023-07-31T00:15:05;96576.28;;;23.80;100.00
7614;BME280;3848;42.016;23.098;2023-07-31T00:17:32;96576.28;;;23.80;100.00
7614;BME280;3848;42.016;23.098;2023-07-31T00:19:59;96569.22;;;23.82;100.00
7614;BME280;3848;42.016;23.098;2023-07-31T00:22:26;96578.44;;;23.86;100.00
7614;BME280;3848;42.016;23.098;2023-07-31T00:24:53;96596.91;;;23.82;100.00
7614;BME280;3848;42.016;23.098;2023-07-31T00:27:20;96615.41;;;23.77;100.00
7614;BME280;3848;42.016;23.098;2023-07-31T00:29:48;96621.94;;;23.70;100.00
7614;BME280;3848;42.016;23.098;2023-07-31T00:32:14;96644.38;;;23.58;100.00
7614;BME280;3848;42.016;23.098;2023-07-31T00:34:41;96631.06;;;23.50;100.00
7614;BME280;3848;42.016;23.098;2023-07-31T00:37:08;96626.28;;;23.44;100.00
7614;BME280;3848;42.016;23.098;2023-07-31T00:39:35;96634.38;;;23.39;100.00
7614;BME280;3848;42.016;23.098;2023-07-31T00:42:02;96594.94;;;23.09;100.00
7614;BME280;3848;42.016;23.098;2023-07-31T00:44:29;96633.75;;;23.23;100.00
7614;BME280;3848;42.016;23.098;2023-07-31T00:46:57;96643.28;;;23.23;100.00
7614;BME280;3848;42.016;23.098;2023-07-31T00:49:25;96640.28;;;23.16;100.00
7614;BME280;3848;42.016;23.098;2023-07-31T00:51:52;96628.34;;;23.14;100.00
7614;BME280;3848;42.016;23.098;2023-07-31T00:54:19;96634.25;;;23.16;100.00
7614;BME280;3848;42.016;23.098;2023-07-31T00:56:46;96624.81;;;23.15;100.00
7614;BME280;3848;42.016;23.098;2023-07-31T00:59:14;96630.63;;;23.18;100.00
7614;BME280;3848;42.016;23.098;2023-07-31T01:01:41;96629.06;;;23.16;100.00
7614;BME280;3848;42.016;23.098;2023-07-31T01:04:09;96625.41;;;23.05;100.00
7614;BME280;3848;42.016;23.098;2023-07-31T01:06:43;96649.88;;;23.01;100.00
7614;BME280;3848;42.016;23.098;2023-07-31T01:09:18;96651.53;;;23.02;100.00
7614;BME280;3848;42.016;23.098;2023-07-31T01:11:57;96643.34;;;22.96;100.00
7614;BME280;3848;42.016;23.098;2023-07-31T01:14:26;96641.69;;;22.95;100.00
7614;BME280;3848;42.016;23.098;2023-07-31T01:16:53;96650.28;;;22.95;100.00
7614;BME280;3848;42.016;23.098;2023-07-31T01:19:23;96639.19;;;22.93;100.00
7614;BME280;3848;42.016;23.098;2023-07-31T01:22:06;96618.41;;;22.80;100.00
7614;BME280;3848;42.016;23.098;2023-07-31T01:24:54;96587.56;;;22.63;100.00
7614;BME280;3848;42.016;23.098;2023-07-31T01:27:25;96628.47;;;22.85;100.00
7614;BME280;3848;42.016;23.098;2023-07-31T01:29:58;96613.41;;;22.77;100.00
7614;BME280;3848;42.016;23.098;2023-07-31T01:32:28;96618.19;;;22.71;100.00
7614;BME280;3848;42.016;23.098;2023-07-31T01:34:57;96622.59;;;22.69;100.00
7614;BME280;3848;42.016;23.098;2023-07-31T01:37:28;96619.28;;;22.67;100.00
7614;BME280;3848;42.016;23.098;2023-07-31T01:39:54;96627.16;;;22.65;100.00
7614;BME280;3848;42.016;23.098;2023-07-31T01:42:23;96627.22;;;22.51;100.00
7614;BME280;3848;42.016;23.098;2023-07-31T01:44:49;96625.94;;;22.44;100.00
7614;BME280;3848;42.016;23.098;2023-07-31T01:47:16;96610.69;;;22.39;100.00
7614;BME280;3848;42.016;23.098;2023-07-31T01:49:43;96619.84;;;22.45;100.00
7614;BME280;3848;42.016;23.098;2023-07-31T01:52:10;96594.16;;;22.28;100.00
7614;BME280;3848;42.016;23.098;2023-07-31T01:54:36;96613.78;;;22.32;100.00
7614;BME280;3848;42.016;23.098;2023-07-31T01:57:03;96599.84;;;22.20;100.00
7614;BME280;3848;42.016;23.098;2023-07-31T01:59:32;96607.72;;;22.18;100.00
7614;BME280;3848;42.016;23.098;2023-07-31T02:01:59;96604.28;;;22.18;100.00
7614;BME280;3848;42.016;23.098;2023-07-31T02:04:25;96604.94;;;22.21;100.00
7614;BME280;3848;42.016;23.098;2023-07-31T02:06:52;96593.34;;;22.27;100.00
7614;BME280;3848;42.016;23.098;2023-07-31T02:09:19;96596.97;;;22.25;100.00
7614;BME280;3848;42.016;23.098;2023-07-31T02:11:45;96584.91;;;22.11;100.00
7614;BME280;3848;42.016;23.098;2023-07-31T02:14:12;96606.97;;;22.16;100.00
7614;BME280;3848;42.016;23.098;2023-07-31T02:16:40;96611.31;;;22.16;100.00
7614;BME280;3848;42.016;23.098;2023-07-31T02:19:08;96619.47;;;22.10;100.00
7614;BME280;3848;42.016;23.098;2023-07-31T02:21:34;96583.16;;;21.83;100.00
7614;BME280;3848;42.016;23.098;2023-07-31T02:24:01;96634.44;;;22.05;100.00
7614;BME280;3848;42.016;23.098;2023-07-31T02:26:28;96632.84;;;22.02;100.00
7614;BME280;3848;42.016;23.098;2023-07-31T02:28:55;96628.44;;;21.90;100.00
7614;BME280;3848;42.016;23.098;2023-07-31T02:31:21;96628.44;;;21.90;100.00
7614;BME280;3848;42.016;23.098;2023-07-31T02:33:50;96632.97;;;21.86;100.00
7614;BME280;3848;42.016;23.098;2023-07-31T02:36:16;96647.47;;;21.89;100.00
7614;BME280;3848;42.016;23.098;2023-07-31T02:38:43;96649.59;;;21.82;100.00
7614;BME280;3848;42.016;23.098;2023-07-31T02:41:10;96657.72;;;21.76;100.00
7614;BME280;3848;42.016;23.098;2023-07-31T02:43:37;96662.25;;;21.87;100.00
7614;BME280;3848;42.016;23.098;2023-07-31T02:46:03;96657.72;;;21.76;100.00
7614;BME280;3848;42.016;23.098;2023-07-31T02:48:30;96659.56;;;21.74;100.00
7614;BME280;3848;42.016;23.098;2023-07-31T02:50:58;96656.06;;;21.75;100.00
7614;BME280;3848;42.016;23.098;2023-07-31T02:53:25;96650.16;;;21.73;100.00
7614;BME280;3848;42.016;23.098;2023-07-31T02:55:52;96648.78;;;21.68;100.00
7614;BME280;3848;42.016;23.098;2023-07-31T02:58:19;96656.25;;;21.72;100.00
7614;BME280;3848;42.016;23.098;2023-07-31T03:00:45;96653.66;;;21.72;100.00
7614;BME280;3848;42.016;23.098;2023-07-31T03:03:12;96654.50;;;21.73;100.00
7614;BME280;3848;42.016;23.098;2023-07-31T03:05:39;96652.56;;;21.76;100.00
7614;BME280;3848;42.016;23.098;2023-07-31T03:08:07;96656.34;;;21.71;100.00
7614;BME280;3848;42.016;23.098;2023-07-31T03:10:34;96652.44;;;21.64;100.00
7614;BME280;3848;42.016;23.098;2023-07-31T03:13:01;96649.63;;;21.68;100.00
7614;BME280;3848;42.016;23.098;2023-07-31T03:15:27;96644.25;;;21.71;100.00
7614;BME280;3848;42.016;23.098;2023-07-31T03:17:54;96645.91;;;21.72;100.00
7614;BME280;3848;42.016;23.098;2023-07-31T03:20:21;96631.31;;;21.57;100.00
7614;BME280;3848;42.016;23.098;2023-07-31T03:22:48;96657.19;;;21.71;100.00
7614;BME280;3848;42.016;23.098;2023-07-31T03:25:16;96656.91;;;21.76;100.00
7614;BME280;3848;42.016;23.098;2023-07-31T03:27:43;96658.19;;;21.69;100.00
7614;BME280;3848;42.016;23.098;2023-07-31T03:30:10;96666.59;;;21.72;100.00
7614;BME280;3848;42.016;23.098;2023-07-31T03:32:37;96680.25;;;21.60;100.00
7614;BME280;3848;42.016;23.098;2023-07-31T03:35:05;96689.41;;;21.51;100.00
7614;BME280;3848;42.016;23.098;2023-07-31T03:37:32;96685.66;;;21.41;100.00
7614;BME280;3848;42.016;23.098;2023-07-31T03:39:58;96681.09;;;21.46;100.00
7614;BME280;3848;42.016;23.098;2023-07-31T03:42:26;96682.66;;;21.49;100.00
7614;BME280;3848;42.016;23.098;2023-07-31T03:44:53;96686.72;;;21.53;100.00
7614;BME280;3848;42.016;23.098;2023-07-31T03:47:20;96634.81;;;21.27;100.00
7614;BME280;3848;42.016;23.098;2023-07-31T03:49:47;96683.31;;;21.52;100.00
7614;BME280;3848;42.016;23.098;2023-07-31T03:52:13;96676.00;;;21.59;100.00
7614;BME280;3848;42.016;23.098;2023-07-31T03:54:40;96672.69;;;21.57;100.00
7614;BME280;3848;42.016;23.098;2023-07-31T03:57:09;96690.22;;;21.52;100.00
7614;BME280;3848;42.016;23.098;2023-07-31T03:59:38;96688.94;;;21.45;100.00
7614;BME280;3848;42.016;23.098;2023-07-31T04:02:05;96702.09;;;21.40;100.00
7614;BME280;3848;42.016;23.098;2023-07-31T04:04:31;96701.28;;;21.40;100.00
7614;BME280;3848;42.016;23.098;2023-07-31T04:06:58;96697.75;;;21.41;100.00
7614;BME280;3848;42.016;23.098;2023-07-31T04:09:25;96689.81;;;21.29;100.00
7614;BME280;3848;42.016;23.098;2023-07-31T04:11:52;96693.69;;;21.37;100.00
7614;BME280;3848;42.016;23.098;2023-07-31T04:14:19;96701.69;;;21.48;100.00
7614;BME280;3848;42.016;23.098;2023-07-31T04:16:47;96702.41;;;21.50;100.00
7614;BME280;3848;42.016;23.098;2023-07-31T04:19:14;96711.09;;;21.49;100.00
7614;BME280;3848;42.016;23.098;2023-07-31T04:21:42;96707.59;;;21.50;100.00
7614;BME280;3848;42.016;23.098;2023-07-31T04:24:09;96712.75;;;21.50;100.00
7614;BME280;3848;42.016;23.098;2023-07-31T04:26:35;96692.91;;;21.50;100.00
7614;BME280;3848;42.016;23.098;2023-07-31T04:29:02;96692.44;;;21.58;100.00
7614;BME280;3848;42.016;23.098;2023-07-31T04:31:29;96704.34;;;21.60;100.00
7614;BME280;3848;42.016;23.098;2023-07-31T04:33:57;96702.50;;;21.63;100.00
7614;BME280;3848;42.016;23.098;2023-07-31T04:36:24;96711.31;;;21.74;100.00
7614;BME280;3848;42.016;23.098;2023-07-31T04:38:51;96714.16;;;21.70;100.00
7614;BME280;3848;42.016;23.098;2023-07-31T04:41:17;96702.63;;;21.75;100.00
7614;BME280;3848;42.016;23.098;2023-07-31T04:43:44;96704.94;;;21.80;100.00
7614;BME280;3848;42.016;23.098;2023-07-31T04:46:11;96707.22;;;21.84;100.00
7614;BME280;3848;42.016;23.098;2023-07-31T04:48:38;96707.06;;;21.87;100.00
7614;BME280;3848;42.016;23.098;2023-07-31T04:51:06;96712.41;;;21.99;100.00
7614;BME280;3848;42.016;23.098;2023-07-31T04:53:32;96713.72;;;22.06;100.00
7614;BME280;3848;42.016;23.098;2023-07-31T04:55:59;96702.56;;;22.05;100.00
7614;BME280;3848;42.016;23.098;2023-07-31T04:58:26;96709.59;;;22.17;100.00
7614;BME280;3848;42.016;23.098;2023-07-31T05:00:53;96662.22;;;22.01;100.00
7614;BME280;3848;42.016;23.098;2023-07-31T05:03:19;96688.59;;;22.22;100.00
7614;BME280;3848;42.016;23.098;2023-07-31T05:05:47;96704.09;;;22.36;100.00
7614;BME280;3848;42.016;23.098;2023-07-31T05:08:17;96704.25;;;22.47;100.00
7614;BME280;3848;42.016;23.098;2023-07-31T05:10:45;96696.50;;;22.47;100.00
7614;BME280;3848;42.016;23.098;2023-07-31T05:13:12;96710.03;;;22.65;100.00
7614;BME280;3848;42.016;23.098;2023-07-31T05:15:38;96715.50;;;22.75;100.00
7614;BME280;3848;42.016;23.098;2023-07-31T05:18:05;96720.56;;;22.76;100.00
7614;BME280;3848;42.016;23.098;2023-07-31T05:20:32;96714.19;;;22.82;100.00
7614;BME280;3848;42.016;23.098;2023-07-31T05:22:58;96711.19;;;22.88;100.00
7614;BME280;3848;42.016;23.098;2023-07-31T05:25:27;96710.63;;;22.97;100.00
7614;BME280;3848;42.016;23.098;2023-07-31T05:27:53;96707.44;;;23.06;100.00
7614;BME280;3848;42.016;23.098;2023-07-31T05:30:20;96710.56;;;23.11;100.00
7614;BME280;3848;42.016;23.098;2023-07-31T05:32:47;96702.69;;;23.13;100.00
7614;BME280;3848;42.016;23.098;2023-07-31T05:35:14;96706.53;;;23.20;100.00
7614;BME280;3848;42.016;23.098;2023-07-31T05:37:40;96666.25;;;23.02;100.00
7614;BME280;3848;42.016;23.098;2023-07-31T05:40:08;96703.78;;;23.36;100.00
7614;BME280;3848;42.016;23.098;2023-07-31T05:42:36;96699.72;;;23.45;100.00
7614;BME280;3848;42.016;23.098;2023-07-31T05:45:05;96703.06;;;23.47;100.00
7614;BME280;3848;42.016;23.098;2023-07-31T05:47:32;96698.03;;;23.58;100.00
7614;BME280;3848;42.016;23.098;2023-07-31T05:49:58;96692.22;;;23.67;100.00
7614;BME280;3848;42.016;23.098;2023-07-31T05:52:25;96687.63;;;23.70;100.00
7614;BME280;3848;42.016;23.098;2023-07-31T05:54:54;96667.41;;;23.63;100.00
7614;BME280;3848;42.016;23.098;2023-07-31T05:57:21;96690.13;;;23.85;100.00
7614;BME280;3848;42.016;23.098;2023-07-31T05:59:49;96694.69;;;23.94;100.00
7614;BME280;3848;42.016;23.098;2023-07-31T06:02:16;96685.06;;;23.96;100.00
7614;BME280;3848;42.016;23.098;2023-07-31T06:04:42;96695.63;;;24.06;100.00
7614;BME280;3848;42.016;23.098;2023-07-31T06:07:09;96702.03;;;24.13;100.00
7614;BME280;3848;42.016;23.098;2023-07-31T06:09:36;96699.66;;;24.22;100.00
7614;BME280;3848;42.016;23.098;2023-07-31T06:12:03;96692.16;;;24.30;100.00
7614;BME280;3848;42.016;23.098;2023-07-31T06:14:30;96670.13;;;24.23;100.00
7614;BME280;3848;42.016;23.098;2023-07-31T06:16:58;96685.91;;;24.46;100.00
7614;BME280;3848;42.016;23.098;2023-07-31T06:19:25;96679.53;;;24.50;100.00
7614;BME280;3848;42.016;23.098;2023-07-31T06:21:52;96676.09;;;24.62;100.00
7614;BME280;3848;42.016;23.098;2023-07-31T06:24:18;96687.47;;;24.72;100.00
7614;BME280;3848;42.016;23.098;2023-07-31T06:26:46;96685.16;;;24.80;100.00
7614;BME280;3848;42.016;23.098;2023-07-31T06:29:12;96678.78;;;24.84;100.00
7614;BME280;3848;42.016;23.098;2023-07-31T06:31:41;96681.88;;;24.89;100.00
7614;BME280;3848;42.016;23.098;2023-07-31T06:34:09;96675.03;;;24.88;100.00
7614;BME280;3848;42.016;23.098;2023-07-31T06:36:36;96671.97;;;24.94;100.00
7614;BME280;3848;42.016;23.098;2023-07-31T06:39:03;96676.78;;;25.01;100.00
7614;BME280;3848;42.016;23.098;2023-07-31T06:41:30;96679.50;;;25.10;100.00
7614;BME280;3848;42.016;23.098;2023-07-31T06:43:57;96689.34;;;25.18;100.00
7614;BME280;3848;42.016;23.098;2023-07-31T06:46:23;96687.13;;;25.25;100.00
7614;BME280;3848;42.016;23.098;2023-07-31T06:48:50;96685.13;;;25.28;100.00
7614;BME280;3848;42.016;23.098;2023-07-31T06:51:18;96665.22;;;25.16;100.00
7614;BME280;3848;42.016;23.098;2023-07-31T06:53:45;96692.22;;;25.26;100.00
7614;BME280;3848;42.016;23.098;2023-07-31T06:56:12;96679.22;;;25.26;100.00
7614;BME280;3848;42.016;23.098;2023-07-31T06:58:39;96682.19;;;25.33;100.00
7614;BME280;3848;42.016;23.098;2023-07-31T07:01:06;96679.84;;;25.41;100.00
7614;BME280;3848;42.016;23.098;2023-07-31T07:03:33;96697.38;;;25.50;100.00
7614;BME280;3848;42.016;23.098;2023-07-31T07:05:59;96690.63;;;25.59;100.00
7614;BME280;3848;42.016;23.098;2023-07-31T07:08:28;96682.81;;;25.59;100.00
7614;BME280;3848;42.016;23.098;2023-07-31T07:10:54;96698.50;;;25.70;100.00
7614;BME280;3848;42.016;23.098;2023-07-31T07:13:21;96701.22;;;25.68;100.00
7614;BME280;3848;42.016;23.098;2023-07-31T07:15:49;96702.16;;;25.67;100.00
7614;BME280;3848;42.016;23.098;2023-07-31T07:18:16;96654.56;;;25.54;100.00
7614;BME280;3848;42.016;23.098;2023-07-31T07:20:46;96701.94;;;25.81;100.00
7614;BME280;3848;42.016;23.098;2023-07-31T07:23:13;96688.72;;;25.85;100.00
7614;BME280;3848;42.016;23.098;2023-07-31T07:25:41;96679.47;;;25.92;100.00
7614;BME280;3848;42.016;23.098;2023-07-31T07:28:08;96674.16;;;26.04;100.00
7614;BME280;3848;42.016;23.098;2023-07-31T07:30:35;96679.59;;;26.12;100.00
7614;BME280;3848;42.016;23.098;2023-07-31T07:33:02;96676.03;;;26.25;100.00
7614;BME280;3848;42.016;23.098;2023-07-31T07:35:29;96687.88;;;26.29;100.00
7614;BME280;3848;42.016;23.098;2023-07-31T07:37:56;96696.75;;;26.37;100.00
7614;BME280;3848;42.016;23.098;2023-07-31T07:40:23;96693.06;;;26.40;100.00
7614;BME280;3848;42.016;23.098;2023-07-31T07:42:51;96703.63;;;26.50;100.00
7614;BME280;3848;42.016;23.098;2023-07-31T07:45:18;96695.81;;;26.50;100.00
7614;BME280;3848;42.016;23.098;2023-07-31T07:47:44;96694.09;;;26.60;100.00
7614;BME280;3848;42.016;23.098;2023-07-31T07:50:11;96692.09;;;26.63;100.00
7614;BME280;3848;42.016;23.098;2023-07-31T07:52:40;96691.13;;;26.76;100.00
7614;BME280;3848;42.016;23.098;2023-07-31T07:55:13;96694.41;;;26.89;100.00
7614;BME280;3848;42.016;23.098;2023-07-31T07:57:42;96701.38;;;26.99;100.00
7614;BME280;3848;42.016;23.098;2023-07-31T08:00:12;96690.09;;;26.99;100.00
7614;BME280;3848;42.016;23.098;2023-07-31T08:02:38;96694.41;;;27.21;100.00
7614;BME280;3848;42.016;23.098;2023-07-31T08:05:06;96696.16;;;27.31;100.00
7614;BME280;3848;42.016;23.098;2023-07-31T08:07:33;96686.34;;;27.45;100.00
7614;BME280;3848;42.016;23.098;2023-07-31T08:10:00;96681.06;;;27.56;100.00
7614;BME280;3848;42.016;23.098;2023-07-31T08:12:27;96680.50;;;27.73;100.00
7614;BME280;3848;42.016;23.098;2023-07-31T08:14:54;96675.06;;;27.86;94.90
7614;BME280;3848;42.016;23.098;2023-07-31T08:17:22;96679.25;;;27.98;90.32
7614;BME280;3848;42.016;23.098;2023-07-31T08:19:49;96666.88;;;28.00;90.29
7614;BME280;3848;42.016;23.098;2023-07-31T08:22:15;96672.03;;;28.21;86.07
7614;BME280;3848;42.016;23.098;2023-07-31T08:24:42;96674.69;;;28.31;87.61
7614;BME280;3848;42.016;23.098;2023-07-31T08:27:09;96669.25;;;28.43;82.70
7614;BME280;3848;42.016;23.098;2023-07-31T08:29:36;96637.31;;;28.49;78.98
7614;BME280;3848;42.016;23.098;2023-07-31T08:32:04;96678.81;;;28.83;76.75
7614;BME280;3848;42.016;23.098;2023-07-31T08:34:32;96673.84;;;28.80;71.78
7614;BME280;3848;42.016;23.098;2023-07-31T08:36:59;96679.25;;;28.88;73.21
7614;BME280;3848;42.016;23.098;2023-07-31T08:39:25;96687.66;;;28.92;71.33
7614;BME280;3848;42.016;23.098;2023-07-31T08:41:58;96656.53;;;28.89;70.09
7614;BME280;3848;42.016;23.098;2023-07-31T08:44:25;96684.50;;;29.17;67.66
7614;BME280;3848;42.016;23.098;2023-07-31T08:46:52;96673.44;;;29.33;65.41
7614;BME280;3848;42.016;23.098;2023-07-31T08:49:20;96670.69;;;29.54;69.56
7614;BME280;3848;42.016;23.098;2023-07-31T08:51:52;96665.69;;;29.70;65.96
7614;BME280;3848;42.016;23.098;2023-07-31T08:54:19;96661.06;;;29.91;61.89
7614;BME280;3848;42.016;23.098;2023-07-31T08:56:46;96660.63;;;29.96;59.73
7614;BME280;3848;42.016;23.098;2023-07-31T08:59:14;96660.50;;;30.07;64.05
7614;BME280;3848;42.016;23.098;2023-07-31T09:01:47;96667.16;;;30.29;61.63
7614;BME280;3848;42.016;23.098;2023-07-31T09:04:17;96670.88;;;30.54;59.53
7614;BME280;3848;42.016;23.098;2023-07-31T09:06:46;96659.41;;;30.55;58.77
7614;BME280;3848;42.016;23.098;2023-07-31T09:09:15;96658.94;;;30.69;58.10
7614;BME280;3848;42.016;23.098;2023-07-31T09:11:42;96643.84;;;30.71;57.90
7614;BME280;3848;42.016;23.098;2023-07-31T09:14:10;96657.13;;;30.87;55.30
7614;BME280;3848;42.016;23.098;2023-07-31T09:16:51;96657.81;;;30.89;54.99
7614;BME280;3848;42.016;23.098;2023-07-31T09:19:25;96639.13;;;30.92;56.62
7614;BME280;3848;42.016;23.098;2023-07-31T09:21:52;96652.19;;;31.20;56.01
7614;BME280;3848;42.016;23.098;2023-07-31T09:24:27;96648.47;;;31.48;54.85
7614;BME280;3848;42.016;23.098;2023-07-31T09:26:56;96654.06;;;31.53;54.00
7614;BME280;3848;42.016;23.098;2023-07-31T09:29:24;96640.97;;;31.62;52.24
7614;BME280;3848;42.016;23.098;2023-07-31T09:31:52;96633.63;;;31.65;52.88
7614;BME280;3848;42.016;23.098;2023-07-31T09:34:19;96627.19;;;31.85;52.18
7614;BME280;3848;42.016;23.098;2023-07-31T09:36:49;96629.31;;;31.82;51.13
7614;BME280;3848;42.016;23.098;2023-07-31T09:39:17;96632.31;;;31.87;51.17
7614;BME280;3848;42.016;23.098;2023-07-31T09:41:53;96624.53;;;31.77;52.23
7614;BME280;3848;42.016;23.098;2023-07-31T09:44:20;96625.09;;;31.97;50.56
7614;BME280;3848;42.016;23.098;2023-07-31T09:46:47;96629.28;;;32.16;51.05
7614;BME280;3848;42.016;23.098;2023-07-31T09:49:15;96615.66;;;32.21;50.32
7614;BME280;3848;42.016;23.098;2023-07-31T09:51:42;96602.59;;;32.37;50.68
7614;BME280;3848;42.016;23.098;2023-07-31T09:54:10;96625.00;;;32.65;48.65
7614;BME280;3848;42.016;23.098;2023-07-31T09:56:41;96614.38;;;32.91;47.50
7614;BME280;3848;42.016;23.098;2023-07-31T09:59:11;96614.72;;;33.13;45.91
7614;BME280;3848;42.016;23.098;2023-07-31T10:01:39;96605.63;;;33.23;44.69
7614;BME280;3848;42.016;23.098;2023-07-31T10:04:07;96601.34;;;33.55;44.46
7614;BME280;3848;42.016;23.098;2023-07-31T10:06:35;96592.19;;;33.90;44.39
7614;BME280;3848;42.016;23.098;2023-07-31T10:09:05;96593.19;;;33.73;45.40
7614;BME280;3848;42.016;23.098;2023-07-31T10:11:34;96594.97;;;33.97;44.49
7614;BME280;3848;42.016;23.098;2023-07-31T10:14:05;96589.22;;;34.24;44.30
7614;BME280;3848;42.016;23.098;2023-07-31T10:16:38;96584.53;;;34.42;44.41
7614;BME280;3848;42.016;23.098;2023-07-31T10:19:06;96588.38;;;34.63;43.03
7614;BME280;3848;42.016;23.098;2023-07-31T10:21:35;96577.19;;;34.52;44.16
7614;BME280;3848;42.016;23.098;2023-07-31T10:24:03;96583.47;;;34.74;42.73
7614;BME280;3848;42.016;23.098;2023-07-31T10:26:31;96577.94;;;34.92;42.74
7614;BME280;3848;42.016;23.098;2023-07-31T10:28:58;96573.88;;;35.19;41.78
7614;BME280;3848;42.016;23.098;2023-07-31T10:31:26;96564.66;;;35.00;40.86
7614;BME280;3848;42.016;23.098;2023-07-31T10:33:56;96574.63;;;35.28;40.95
7614;BME280;3848;42.016;23.098;2023-07-31T10:36:23;96570.75;;;35.38;41.24
7614;BME280;3848;42.016;23.098;2023-07-31T10:38:51;96521.91;;;35.34;41.04
7614;BME280;3848;42.016;23.098;2023-07-31T10:41:18;96565.22;;;35.63;40.57
7614;BME280;3848;42.016;23.098;2023-07-31T10:43:46;96577.31;;;35.72;39.75
7614;BME280;3848;42.016;23.098;2023-07-31T10:46:14;96513.41;;;35.54;39.57
7614;BME280;3848;42.016;23.098;2023-07-31T10:48:41;96550.00;;;36.16;39.46
7614;BME280;3848;42.016;23.098;2023-07-31T10:51:11;96568.13;;;36.48;39.21
7614;BME280;3848;42.016;23.098;2023-07-31T10:53:39;96566.97;;;36.36;37.79
7614;BME280;3848;42.016;23.098;2023-07-31T10:56:08;96565.84;;;36.45;36.56
7614;BME280;3848;42.016;23.098;2023-07-31T10:58:38;96552.84;;;36.14;37.32
7614;BME280;3848;42.016;23.098;2023-07-31T11:01:06;96556.81;;;35.89;37.75
7614;BME280;3848;42.016;23.098;2023-07-31T11:03:43;96552.56;;;36.24;37.96
7614;BME280;3848;42.016;23.098;2023-07-31T11:06:12;96541.84;;;36.47;37.68
7614;BME280;3848;42.016;23.098;2023-07-31T11:08:43;96548.72;;;36.26;36.56
7614;BME280;3848;42.016;23.098;2023-07-31T11:11:12;96536.53;;;36.47;37.06
7614;BME280;3848;42.016;23.098;2023-07-31T11:13:44;96534.63;;;36.62;36.04
7614;BME280;3848;42.016;23.098;2023-07-31T11:16:12;96534.50;;;36.70;36.54
7614;BME280;3848;42.016;23.098;2023-07-31T11:18:40;96527.00;;;36.52;35.03
7614;BME280;3848;42.016;23.098;2023-07-31T11:21:08;96534.06;;;36.67;35.71
7614;BME280;3848;42.016;23.098;2023-07-31T11:23:38;96541.56;;;36.84;36.06
7614;BME280;3848;42.016;23.098;2023-07-31T11:26:05;96534.13;;;36.73;34.91
7614;BME280;3848;42.016;23.098;2023-07-31T11:28:33;96522.81;;;36.64;34.55
7614;BME280;3848;42.016;23.098;2023-07-31T11:31:01;96526.16;;;36.94;36.02
7614;BME280;3848;42.016;23.098;2023-07-31T11:33:28;96540.44;;;36.72;36.29
7614;BME280;3848;42.016;23.098;2023-07-31T11:35:55;96509.81;;;36.06;36.73
7614;BME280;3848;42.016;23.098;2023-07-31T11:38:22;96529.72;;;36.38;36.62
7614;BME280;3848;42.016;23.098;2023-07-31T11:40:51;96525.75;;;36.48;35.52
7614;BME280;3848;42.016;23.098;2023-07-31T11:43:19;96519.13;;;36.59;35.68
7614;BME280;3848;42.016;23.098;2023-07-31T11:45:47;96520.97;;;36.80;35.49
7614;BME280;3848;42.016;23.098;2023-07-31T11:48:25;96531.28;;;36.75;34.17
7614;BME280;3848;42.016;23.098;2023-07-31T11:50:54;96515.34;;;36.47;34.41
7614;BME280;3848;42.016;23.098;2023-07-31T11:53:26;96514.88;;;36.64;35.22
7614;BME280;3848;42.016;23.098;2023-07-31T11:55:55;96515.88;;;36.85;34.12
7614;BME280;3848;42.016;23.098;2023-07-31T11:58:22;96498.69;;;37.02;34.65
7614;BME280;3848;42.016;23.098;2023-07-31T12:00:49;96504.66;;;36.83;34.32
7614;BME280;3848;42.016;23.098;2023-07-31T12:03:16;96497.34;;;36.85;34.74
7614;BME280;3848;42.016;23.098;2023-07-31T12:05:43;96510.72;;;36.77;33.85
7614;BME280;3848;42.016;23.098;2023-07-31T12:08:11;96497.00;;;36.67;35.09
7614;BME280;3848;42.016;23.098;2023-07-31T12:10:38;96493.00;;;36.77;33.25
7614;BME280;3848;42.016;23.098;2023-07-31T12:13:08;96518.16;;;37.16;33.96
7614;BME280;3848;42.016;23.098;2023-07-31T12:15:40;96511.41;;;36.85;32.68
7614;BME280;3848;42.016;23.098;2023-07-31T12:18:09;96503.47;;;36.85;33.56
7614;BME280;3848;42.016;23.098;2023-07-31T12:20:41;96490.06;;;36.87;33.86
7614;BME280;3848;42.016;23.098;2023-07-31T12:23:13;96485.78;;;37.20;33.88
7614;BME280;3848;42.016;23.098;2023-07-31T12:25:40;96489.03;;;37.50;33.20
7614;BME280;3848;42.016;23.098;2023-07-31T12:28:09;96478.47;;;37.64;32.03
7614;BME280;3848;42.016;23.098;2023-07-31T12:30:38;96483.72;;;37.92;31.74
7614;BME280;3848;42.016;23.098;2023-07-31T12:33:07;96490.47;;;38.07;31.97
7614;BME280;3848;42.016;23.098;2023-07-31T12:35:41;96474.25;;;38.43;31.98
7614;BME280;3848;42.016;23.098;2023-07-31T12:38:08;96484.50;;;38.66;30.81
7614;BME280;3848;42.016;23.098;2023-07-31T12:40:37;96466.09;;;38.71;31.09
7614;BME280;3848;42.016;23.098;2023-07-31T12:43:04;96440.16;;;38.67;31.11
7614;BME280;3848;42.016;23.098;2023-07-31T12:45:33;96471.16;;;38.27;31.15
7614;BME280;3848;42.016;23.098;2023-07-31T12:48:00;96458.69;;;38.21;30.73
7614;BME280;3848;42.016;23.098;2023-07-31T12:50:27;96455.56;;;38.04;30.79
7614;BME280;3848;42.016;23.098;2023-07-31T12:52:54;96448.81;;;37.95;31.41
7614;BME280;3848;42.016;23.098;2023-07-31T12:55:22;96436.16;;;38.03;31.76
7614;BME280;3848;42.016;23.098;2023-07-31T12:57:49;96403.72;;;38.01;30.85
7614;BME280;3848;42.016;23.098;2023-07-31T13:00:16;96437.22;;;38.16;31.12
7614;BME280;3848;42.016;23.098;2023-07-31T13:02:44;96436.19;;;38.17;30.29
7614;BME280;3848;42.016;23.098;2023-07-31T13:05:11;96436.31;;;37.82;31.38
7614;BME280;3848;42.016;23.098;2023-07-31T13:07:38;96451.22;;;37.83;30.94